Wilson Lisbon — 5BNU3 — position and weather

sailwx.info

Track history (hours):
 
Tides and Currents Weather Stations Pressure Air Temp Water Temp Dewpoint Dewpoint Depression Visibility Wind Speed Wind Dir Waves Ship Positions

Wilson Lisbon

Last reported at 2014-Sep-29 22:29 UTC. Time now 2014-Sep-30 14:04 UTC.
Position N 63°58' E 011°13'.

Length 90 m; draft 5.8 m.

Type: Ship. MMSI: 212376000.

Date/timePositionNaut miles runAvg speedWind from/ knotsBaromVisibWave heightAir tempDewpointWater temp
2014-Sep-29 22:29N 63°58' E 011°13'9 9.2
2014-Sep-29 21:33N 63°50' E 011°05'10 9.7
2014-Sep-29 20:34N 63°42' E 010°53'1010.0
2014-Sep-29 19:33N 63°36' E 010°36'1010.2
2014-Sep-29 18:33N 63°27' E 010°24'1 1.3
2014-Sep-29 17:32N 63°26' E 010°22'0 0.0
2014-Sep-29 16:32N 63°26' E 010°22'0 0.0
2014-Sep-29 15:32N 63°26' E 010°22'0 0.0
2014-Sep-29 14:33N 63°26' E 010°22'0 0.0
2014-Sep-29 13:32N 63°26' E 010°22'0 0.0
2014-Sep-29 12:32N 63°26' E 010°22'0 0.0
2014-Sep-29 11:08N 63°26' E 010°22'0 0.0
2014-Sep-29 10:32N 63°26' E 010°22'0 0.0
2014-Sep-29 09:32N 63°26' E 010°22'0 0.0
2014-Sep-29 08:32N 63°26' E 010°22'0 0.0
2014-Sep-29 07:32N 63°26' E 010°22'0 0.0
2014-Sep-29 06:32N 63°26' E 010°22'0 0.0
2014-Sep-29 05:32N 63°26' E 010°22'0 0.0
2014-Sep-29 04:32N 63°26' E 010°22'0 0.0
2014-Sep-29 03:32N 63°26' E 010°22'0 0.0
2014-Sep-29 02:32N 63°26' E 010°22'0 0.0
2014-Sep-29 01:32N 63°26' E 010°22'0 0.0
2014-Sep-29 00:32N 63°26' E 010°22'0 0.0
2014-Sep-28 23:32N 63°26' E 010°22'0 0.0
2014-Sep-28 22:32N 63°26' E 010°22'0 0.0
2014-Sep-28 21:32N 63°26' E 010°22'0 0.0
2014-Sep-28 20:32N 63°26' E 010°22'0 0.0
2014-Sep-28 19:32N 63°26' E 010°22'0 0.0
2014-Sep-28 18:32N 63°26' E 010°22'0 0.0
2014-Sep-28 17:32N 63°26' E 010°22'0 0.0
2014-Sep-28 16:32N 63°26' E 010°22'0 0.0
2014-Sep-28 15:34N 63°26' E 010°22'7 7.5
2014-Sep-28 14:34N 63°28' E 010°06'  
2014-Sep-26 07:11N 60°21' E 004°25'88 7.5
2014-Sep-25 19:33N 58°56' E 005°02'8 7.7
2014-Sep-25 18:33N 58°49' E 005°09'16 7.0
2014-Sep-25 16:14N 58°35' E 005°24'6 7.5
2014-Sep-25 15:30N 58°30' E 005°29'7 7.6
2014-Sep-25 14:33N 58°25' E 005°39'8 7.6
2014-Sep-25 13:33N 58°20' E 005°50'7 7.2
2014-Sep-25 12:33N 58°15' E 005°60'7 6.6
2014-Sep-25 11:34N 58°10' E 006°09'7 6.5
2014-Sep-25 10:33N 58°06' E 006°18'7 6.9
2014-Sep-25 09:33N 58°02' E 006°29'55 7.8
2014-Sep-25 02:28N 57°59' E 008°12'8 8.5
2014-Sep-25 01:33N 58°04' E 008°24'9 8.8
2014-Sep-25 00:34N 58°10' E 008°36'9 9.0
2014-Sep-24 23:33N 58°16' E 008°48'56 8.6
2014-Sep-24 17:04N 58°56' E 010°02'5 0.2
2014-Sep-23 20:33N 59°01' E 010°03'8 7.3
2014-Sep-23 19:31N 58°55' E 009°53'64 7.1
2014-Sep-23 10:33N 58°02' E 011°01'8 8.5
2014-Sep-23 09:33N 57°55' E 011°10'8 8.2
2014-Sep-23 08:33N 57°49' E 011°19'8 8.4
2014-Sep-23 07:33N 57°42' E 011°28'9 8.7
2014-Sep-23 06:33N 57°35' E 011°38'1 1.2
2014-Sep-23 05:29N 57°35' E 011°41'0 0.0
2014-Sep-23 04:32N 57°35' E 011°41'0 0.0
2014-Sep-23 03:32N 57°35' E 011°41'0 0.0
2014-Sep-23 02:32N 57°35' E 011°41'5 5.5
2014-Sep-23 01:33N 57°30' E 011°40'1110.8
2014-Sep-23 00:33N 57°19' E 011°47'1010.2
2014-Sep-22 23:32N 57°10' E 011°56'1010.1
2014-Sep-22 22:32N 57°02' E 012°05'1010.2
2014-Sep-22 21:32N 56°53' E 012°15'10 9.9
2014-Sep-22 20:33N 56°44' E 012°24'9 9.3
2014-Sep-22 19:33N 56°38' E 012°35'9 8.7
2014-Sep-22 18:33N 56°39' E 012°51'0 0.0
2014-Sep-20 20:30N 56°39' E 012°51'7 7.3
2014-Sep-20 19:32N 56°35' E 012°41'9 9.0
2014-Sep-20 18:33N 56°40' E 012°28'1010.1
2014-Sep-20 17:32N 56°47' E 012°14'1010.2
2014-Sep-20 16:33N 56°52' E 011°58'10 9.9
2014-Sep-20 15:33N 56°58' E 011°44'10 9.8
2014-Sep-20 14:33N 57°07' E 011°38'9 9.2
2014-Sep-20 13:33N 57°16' E 011°32'9 8.6
2014-Sep-20 12:33N 57°24' E 011°26'8 8.4
2014-Sep-20 11:33N 57°31' E 011°17'9 8.5
2014-Sep-20 10:33N 57°37' E 011°06'9 8.6
2014-Sep-20 09:33N 57°42' E 010°54'8 8.4
2014-Sep-20 08:33N 57°47' E 010°41'9 9.1
2014-Sep-20 07:33N 57°47' E 010°24'8 8.0
2014-Sep-20 06:33N 57°48' E 010°09'8 8.0
2014-Sep-20 05:33N 57°49' E 009°54'9 9.3
2014-Sep-20 04:33N 57°49' E 009°36'18 9.0
2014-Sep-20 02:31N 57°49' E 009°02'12 9.2
2014-Sep-20 01:15N 57°50' E 008°40'6 8.8
2014-Sep-20 00:33N 57°50' E 008°29'8 8.2
2014-Sep-19 23:33N 57°50' E 008°13'8 8.1
2014-Sep-19 22:33N 57°50' E 007°58'  
Track history (hours):
 
Tides and Currents Weather Stations Pressure Air Temp Water Temp Dewpoint Dewpoint Depression Visibility Wind Speed Wind Dir Waves Ship Positions

Wilson Lisbon

Last reported at 2014-Sep-29 22:29 UTC. Time now 2014-Sep-30 14:04 UTC.
Position N 63°58' E 011°13'.

Length 90 m; draft 5.8 m.

Type: Ship. MMSI: 212376000.

Date/timePositionNaut miles runAvg speedWind from/ knotsBaromVisibWave heightAir tempDewpointWater temp
2014-Sep-29 22:29N 63°58' E 011°13'9 9.2
2014-Sep-29 21:33N 63°50' E 011°05'10 9.7
2014-Sep-29 20:34N 63°42' E 010°53'1010.0
2014-Sep-29 19:33N 63°36' E 010°36'1010.2
2014-Sep-29 18:33N 63°27' E 010°24'1 1.3
2014-Sep-29 17:32N 63°26' E 010°22'0 0.0
2014-Sep-29 16:32N 63°26' E 010°22'0 0.0
2014-Sep-29 15:32N 63°26' E 010°22'0 0.0
2014-Sep-29 14:33N 63°26' E 010°22'0 0.0
2014-Sep-29 13:32N 63°26' E 010°22'0 0.0
2014-Sep-29 12:32N 63°26' E 010°22'0 0.0
2014-Sep-29 11:08N 63°26' E 010°22'0 0.0
2014-Sep-29 10:32N 63°26' E 010°22'0 0.0
2014-Sep-29 09:32N 63°26' E 010°22'0 0.0
2014-Sep-29 08:32N 63°26' E 010°22'0 0.0
2014-Sep-29 07:32N 63°26' E 010°22'0 0.0
2014-Sep-29 06:32N 63°26' E 010°22'0 0.0
2014-Sep-29 05:32N 63°26' E 010°22'0 0.0
2014-Sep-29 04:32N 63°26' E 010°22'0 0.0
2014-Sep-29 03:32N 63°26' E 010°22'0 0.0
2014-Sep-29 02:32N 63°26' E 010°22'0 0.0
2014-Sep-29 01:32N 63°26' E 010°22'0 0.0
2014-Sep-29 00:32N 63°26' E 010°22'0 0.0
2014-Sep-28 23:32N 63°26' E 010°22'0 0.0
2014-Sep-28 22:32N 63°26' E 010°22'0 0.0
2014-Sep-28 21:32N 63°26' E 010°22'0 0.0
2014-Sep-28 20:32N 63°26' E 010°22'0 0.0
2014-Sep-28 19:32N 63°26' E 010°22'0 0.0
2014-Sep-28 18:32N 63°26' E 010°22'0 0.0
2014-Sep-28 17:32N 63°26' E 010°22'0 0.0
2014-Sep-28 16:32N 63°26' E 010°22'0 0.0
2014-Sep-28 15:34N 63°26' E 010°22'7 7.5
2014-Sep-28 14:34N 63°28' E 010°06'  
2014-Sep-26 07:11N 60°21' E 004°25'88 7.5
2014-Sep-25 19:33N 58°56' E 005°02'8 7.7
2014-Sep-25 18:33N 58°49' E 005°09'16 7.0
2014-Sep-25 16:14N 58°35' E 005°24'6 7.5
2014-Sep-25 15:30N 58°30' E 005°29'7 7.6
2014-Sep-25 14:33N 58°25' E 005°39'8 7.6
2014-Sep-25 13:33N 58°20' E 005°50'7 7.2
2014-Sep-25 12:33N 58°15' E 005°60'7 6.6
2014-Sep-25 11:34N 58°10' E 006°09'7 6.5
2014-Sep-25 10:33N 58°06' E 006°18'7 6.9
2014-Sep-25 09:33N 58°02' E 006°29'55 7.8
2014-Sep-25 02:28N 57°59' E 008°12'8 8.5
2014-Sep-25 01:33N 58°04' E 008°24'9 8.8
2014-Sep-25 00:34N 58°10' E 008°36'9 9.0
2014-Sep-24 23:33N 58°16' E 008°48'56 8.6
2014-Sep-24 17:04N 58°56' E 010°02'5 0.2
2014-Sep-23 20:33N 59°01' E 010°03'8 7.3
2014-Sep-23 19:31N 58°55' E 009°53'64 7.1
2014-Sep-23 10:33N 58°02' E 011°01'8 8.5
2014-Sep-23 09:33N 57°55' E 011°10'8 8.2
2014-Sep-23 08:33N 57°49' E 011°19'8 8.4
2014-Sep-23 07:33N 57°42' E 011°28'9 8.7
2014-Sep-23 06:33N 57°35' E 011°38'1 1.2
2014-Sep-23 05:29N 57°35' E 011°41'0 0.0
2014-Sep-23 04:32N 57°35' E 011°41'0 0.0
2014-Sep-23 03:32N 57°35' E 011°41'0 0.0
2014-Sep-23 02:32N 57°35' E 011°41'5 5.5
2014-Sep-23 01:33N 57°30' E 011°40'1110.8
2014-Sep-23 00:33N 57°19' E 011°47'1010.2
2014-Sep-22 23:32N 57°10' E 011°56'1010.1
2014-Sep-22 22:32N 57°02' E 012°05'1010.2
2014-Sep-22 21:32N 56°53' E 012°15'10 9.9
2014-Sep-22 20:33N 56°44' E 012°24'9 9.3
2014-Sep-22 19:33N 56°38' E 012°35'9 8.7
2014-Sep-22 18:33N 56°39' E 012°51'0 0.0
2014-Sep-20 20:30N 56°39' E 012°51'7 7.3
2014-Sep-20 19:32N 56°35' E 012°41'9 9.0
2014-Sep-20 18:33N 56°40' E 012°28'1010.1
2014-Sep-20 17:32N 56°47' E 012°14'1010.2
2014-Sep-20 16:33N 56°52' E 011°58'10 9.9
2014-Sep-20 15:33N 56°58' E 011°44'10 9.8
2014-Sep-20 14:33N 57°07' E 011°38'9 9.2
2014-Sep-20 13:33N 57°16' E 011°32'9 8.6
2014-Sep-20 12:33N 57°24' E 011°26'8 8.4
2014-Sep-20 11:33N 57°31' E 011°17'9 8.5
2014-Sep-20 10:33N 57°37' E 011°06'9 8.6
2014-Sep-20 09:33N 57°42' E 010°54'8 8.4
2014-Sep-20 08:33N 57°47' E 010°41'9 9.1
2014-Sep-20 07:33N 57°47' E 010°24'8 8.0
2014-Sep-20 06:33N 57°48' E 010°09'8 8.0
2014-Sep-20 05:33N 57°49' E 009°54'9 9.3
2014-Sep-20 04:33N 57°49' E 009°36'18 9.0
2014-Sep-20 02:31N 57°49' E 009°02'12 9.2
2014-Sep-20 01:15N 57°50' E 008°40'6 8.8
2014-Sep-20 00:33N 57°50' E 008°29'8 8.2
2014-Sep-19 23:33N 57°50' E 008°13'8 8.1
2014-Sep-19 22:33N 57°50' E 007°58'  

Dump ship's entire track history